Time;durP1;ratioP1;P1;durP2;ratioP2;P2;SDS_P1;SDS_P2;PMS_P1;PMS_P2;Temp;Humidity;BMP_temperature;BMP_pressure;BME280_temperature;BME280_humidity;BME280_pressure;Samples;Min_cycle;Max_cycle;Signal;HPM_P1;HPM_P2
2021/05/22 00:01:29;;;;;;;0.00;0.00;;;;;;;;;;5075100;28;20904;-64
2021/05/22 00:03:55;;;;;;;0.00;0.00;;;;;;;;;;5074151;28;20182;-64
2021/05/22 00:06:23;;;;;;;4.23;0.60;;;;;;;;;;5078013;28;20194;-64
2021/05/22 00:08:49;;;;;;;7.40;5.97;;;;;;;;;;5075695;28;20259;-63
2021/05/22 00:11:16;;;;;;;0.00;0.00;;;;;;;;;;5076846;28;20194;-64
2021/05/22 00:13:43;;;;;;;0.00;0.00;;;;;;;;;;5076270;28;20351;-64
2021/05/22 00:16:09;;;;;;;0.83;0.27;;;;;;;;;;5077903;28;20185;-64
2021/05/22 00:18:36;;;;;;;0.17;0.17;;;;;;;;;;5075777;28;20660;-64
2021/05/22 00:21:02;;;;;;;1.40;0.20;;;;;;;;;;5079978;28;20166;-64
2021/05/22 00:23:29;;;;;;;1.13;1.07;;;;;;;;;;5074857;28;20189;-64
2021/05/22 00:25:55;;;;;;;20.17;0.53;;;;;;;;;;5075610;28;20183;-63
2021/05/22 00:28:22;;;;;;;0.00;0.00;;;;;;;;;;5077165;28;20186;-63
2021/05/22 00:30:48;;;;;;;0.10;0.10;;;;;;;;;;5077618;28;20175;-63
2021/05/22 00:33:15;;;;;;;2.40;0.37;;;;;;;;;;5071988;28;20652;-63
2021/05/22 00:35:43;;;;;;;0.10;0.07;;;;;;;;;;5073987;28;21013;-64
2021/05/22 00:38:10;;;;;;;0.00;0.00;;;;;;;;;;5072996;28;20201;-63
2021/05/22 00:40:37;;;;;;;0.10;0.10;;;;;;;;;;5074207;28;20182;-63
2021/05/22 00:43:06;;;;;;;0.00;0.00;;;;;;;;;;5081768;28;20185;-62
2021/05/22 00:45:35;;;;;;;3.20;1.00;;;;;;;;;;5081384;28;20183;-62
2021/05/22 00:48:02;;;;;;;0.00;0.00;;;;;;;;;;5072942;28;20182;-63
2021/05/22 00:50:32;;;;;;;0.20;0.20;;;;;;;;;;5078727;28;20671;-63
2021/05/22 00:52:59;;;;;;;0.00;0.00;;;;;;;;;;5075714;28;20317;-63
2021/05/22 00:55:26;;;;;;;0.00;0.00;;;;;;;;;;5079263;28;20604;-63
2021/05/22 00:57:53;;;;;;;0.00;0.00;;;;;;;;;;5080829;28;20222;-63
2021/05/22 01:00:29;;;;;;;0.20;0.20;;;;;;;;;;5080414;28;21581;-64
2021/05/22 01:02:55;;;;;;;0.23;0.23;;;;;;;;;;5078429;28;20231;-63
2021/05/22 01:05:22;;;;;;;0.10;0.10;;;;;;;;;;5079388;28;20202;-63
2021/05/22 01:07:49;;;;;;;1.13;0.73;;;;;;;;;;5078996;28;20340;-63
2021/05/22 01:10:17;;;;;;;0.53;0.43;;;;;;;;;;5079292;28;20186;-63
2021/05/22 01:12:47;;;;;;;0.00;0.00;;;;;;;;;;5079227;28;20259;-63
2021/05/22 01:15:15;;;;;;;0.23;0.23;;;;;;;;;;5079549;28;20237;-63
2021/05/22 01:17:45;;;;;;;0.87;0.40;;;;;;;;;;5078840;28;20278;-63
2021/05/22 01:20:17;;;;;;;0.00;0.00;;;;;;;;;;5078616;28;20259;-63
2021/05/22 01:22:49;;;;;;;1.03;1.03;;;;;;;;;;5079375;28;20189;-63
2021/05/22 01:25:37;;;;;;;0.30;0.30;;;;;;;;;;5078035;28;20186;-63
2021/05/22 01:28:04;;;;;;;10.97;9.80;;;;;;;;;;5078121;28;20186;-63
2021/05/22 01:30:31;;;;;;;0.00;0.00;;;;;;;;;;5077347;28;20182;-63
2021/05/22 01:32:58;;;;;;;10.57;3.30;;;;;;;;;;5079548;28;20190;-62
2021/05/22 01:35:24;;;;;;;0.30;0.30;;;;;;;;;;5079647;28;20824;-63
2021/05/22 01:37:51;;;;;;;0.40;0.40;;;;;;;;;;5079074;28;20701;-63
2021/05/22 01:40:18;;;;;;;2.10;0.83;;;;;;;;;;5079481;28;20724;-63
2021/05/22 01:42:45;;;;;;;2.43;0.50;;;;;;;;;;5079308;28;20902;-64
2021/05/22 01:45:14;;;;;;;0.20;0.20;;;;;;;;;;5079817;28;20187;-63
2021/05/22 01:47:42;;;;;;;0.27;0.10;;;;;;;;;;5079714;28;20281;-63
2021/05/22 01:50:11;;;;;;;6.07;1.97;;;;;;;;;;5079775;28;20178;-62
2021/05/22 01:52:39;;;;;;;0.00;0.00;;;;;;;;;;5079573;28;20288;-62
2021/05/22 01:55:06;;;;;;;0.00;0.00;;;;;;;;;;5077781;28;20233;-62
2021/05/22 01:57:34;;;;;;;0.97;0.30;;;;;;;;;;5077687;28;20174;-63
2021/05/22 02:00:02;;;;;;;0.00;0.00;;;;;;;;;;5079324;28;20232;-63
2021/05/22 02:02:28;;;;;;;0.27;0.27;;;;;;;;;;5079422;28;20217;-63
2021/05/22 02:04:56;;;;;;;0.10;0.10;;;;;;;;;;5079987;28;20209;-63
2021/05/22 02:07:24;;;;;;;0.00;0.00;;;;;;;;;;5079026;28;20194;-63
2021/05/22 02:09:51;;;;;;;2.13;0.30;;;;;;;;;;5079031;28;20190;-63
2021/05/22 02:12:18;;;;;;;0.37;0.37;;;;;;;;;;5077908;28;20231;-63
2021/05/22 02:14:47;;;;;;;0.10;0.10;;;;;;;;;;5078232;28;20230;-63
2021/05/22 02:17:14;;;;;;;0.60;0.60;;;;;;;;;;5079132;28;20186;-63
2021/05/22 02:19:43;;;;;;;0.00;0.00;;;;;;;;;;5079322;28;20236;-63
2021/05/22 02:22:12;;;;;;;0.00;0.00;;;;;;;;;;5081664;28;20213;-63
2021/05/22 02:24:38;;;;;;;0.00;0.00;;;;;;;;;;5083478;28;20190;-63
2021/05/22 02:27:05;;;;;;;0.10;0.10;;;;;;;;;;5079095;28;20178;-63
2021/05/22 02:29:34;;;;;;;2.10;1.90;;;;;;;;;;5079154;28;20213;-63
2021/05/22 02:32:02;;;;;;;0.57;0.40;;;;;;;;;;5082294;28;20256;-63
2021/05/22 02:34:31;;;;;;;1.27;0.43;;;;;;;;;;5082432;28;20205;-62
2021/05/22 02:36:58;;;;;;;0.00;0.00;;;;;;;;;;5082133;28;20179;-63
2021/05/22 02:39:26;;;;;;;0.73;0.10;;;;;;;;;;5083130;28;20640;-63
2021/05/22 02:41:54;;;;;;;0.77;0.50;;;;;;;;;;5082326;28;20204;-62
2021/05/22 02:44:21;;;;;;;0.00;0.00;;;;;;;;;;5083192;28;20719;-63
2021/05/22 02:46:50;;;;;;;0.00;0.00;;;;;;;;;;5083635;28;20202;-63
2021/05/22 02:49:18;;;;;;;0.40;0.40;;;;;;;;;;5076279;28;20880;-62
2021/05/22 02:51:46;;;;;;;1.53;1.43;;;;;;;;;;5066889;28;20210;-62
2021/05/22 02:54:14;;;;;;;20.27;0.90;;;;;;;;;;5075952;28;20278;-63
2021/05/22 02:56:41;;;;;;;0.30;0.10;;;;;;;;;;5066476;28;20185;-63
2021/05/22 02:59:09;;;;;;;9.03;0.37;;;;;;;;;;5076077;28;20182;-62
2021/05/22 03:01:36;;;;;;;0.00;0.00;;;;;;;;;;5071900;28;20186;-63
2021/05/22 03:04:02;;;;;;;0.20;0.20;;;;;;;;;;5080710;28;20719;-62
2021/05/22 03:06:29;;;;;;;0.23;0.10;;;;;;;;;;5078960;28;20183;-62
2021/05/22 03:08:57;;;;;;;0.00;0.00;;;;;;;;;;5079385;28;20167;-62
2021/05/22 03:11:23;;;;;;;2.10;1.60;;;;;;;;;;5079294;28;20179;-62
2021/05/22 03:13:50;;;;;;;0.40;0.40;;;;;;;;;;5078364;28;20202;-62
2021/05/22 03:16:17;;;;;;;0.00;0.00;;;;;;;;;;5079990;28;20178;-62
2021/05/22 03:18:43;;;;;;;0.00;0.00;;;;;;;;;;5076509;28;20726;-62
2021/05/22 03:21:11;;;;;;;1.07;1.07;;;;;;;;;;5078101;28;20188;-62
2021/05/22 03:23:38;;;;;;;0.83;0.23;;;;;;;;;;5071127;28;20191;-63
2021/05/22 03:26:05;;;;;;;0.20;0.20;;;;;;;;;;5073265;28;20248;-62
2021/05/22 03:28:31;;;;;;;0.40;0.27;;;;;;;;;;5077179;28;20182;-62
2021/05/22 03:30:58;;;;;;;0.13;0.13;;;;;;;;;;5081057;28;20190;-63
2021/05/22 03:33:25;;;;;;;1.03;0.47;;;;;;;;;;5070861;28;20311;-63
2021/05/22 03:35:51;;;;;;;0.00;0.00;;;;;;;;;;5076035;28;20787;-63
2021/05/22 03:38:18;;;;;;;10.90;1.37;;;;;;;;;;5078936;28;20274;-62
2021/05/22 03:40:45;;;;;;;0.13;0.13;;;;;;;;;;5069528;28;20190;-63
2021/05/22 03:43:11;;;;;;;2.83;0.53;;;;;;;;;;5075020;28;20203;-63
2021/05/22 03:45:38;;;;;;;0.00;0.00;;;;;;;;;;5080336;28;20266;-63
2021/05/22 03:48:05;;;;;;;2.97;0.47;;;;;;;;;;5078901;28;20590;-63
2021/05/22 03:50:32;;;;;;;0.10;0.10;;;;;;;;;;5078334;28;21383;-63
2021/05/22 03:52:59;;;;;;;0.10;0.10;;;;;;;;;;5078393;28;20190;-63
2021/05/22 03:55:25;;;;;;;0.93;0.70;;;;;;;;;;5079246;28;20202;-63
2021/05/22 03:57:52;;;;;;;0.00;0.00;;;;;;;;;;5076299;28;20285;-63
2021/05/22 04:00:19;;;;;;;0.83;0.40;;;;;;;;;;5070641;28;20186;-63
2021/05/22 04:02:45;;;;;;;2.47;0.57;;;;;;;;;;5076494;28;20849;-62
2021/05/22 04:05:12;;;;;;;0.27;0.27;;;;;;;;;;5075424;28;20193;-63
2021/05/22 04:07:39;;;;;;;0.63;0.13;;;;;;;;;;5076787;28;20193;-62
2021/05/22 04:10:06;;;;;;;0.10;0.10;;;;;;;;;;5074907;28;20905;-63
2021/05/22 04:12:32;;;;;;;0.43;0.43;;;;;;;;;;5074568;28;20217;-63
2021/05/22 04:14:59;;;;;;;1.03;0.20;;;;;;;;;;5075017;28;20217;-63
2021/05/22 04:17:25;;;;;;;0.00;0.00;;;;;;;;;;5079089;28;20270;-62
2021/05/22 04:19:52;;;;;;;4.43;1.13;;;;;;;;;;5071349;28;20256;-63
2021/05/22 04:22:18;;;;;;;0.00;0.00;;;;;;;;;;5079381;28;20178;-63
2021/05/22 04:24:45;;;;;;;0.00;0.00;;;;;;;;;;5077408;28;20673;-63
2021/05/22 04:27:11;;;;;;;0.00;0.00;;;;;;;;;;5077695;28;20178;-63
2021/05/22 04:29:38;;;;;;;0.00;0.00;;;;;;;;;;5068686;28;20184;-63
2021/05/22 04:32:05;;;;;;;0.00;0.00;;;;;;;;;;5065457;28;20300;-63
2021/05/22 04:34:31;;;;;;;0.10;0.10;;;;;;;;;;5068360;28;20696;-62
2021/05/22 04:36:58;;;;;;;1.27;0.90;;;;;;;;;;5079169;28;20186;-63
2021/05/22 04:39:25;;;;;;;0.03;0.03;;;;;;;;;;5079235;28;20176;-62
2021/05/22 04:41:51;;;;;;;0.17;0.17;;;;;;;;;;5078953;28;20170;-63
2021/05/22 04:44:18;;;;;;;0.37;0.37;;;;;;;;;;5078771;28;20185;-63
2021/05/22 04:46:44;;;;;;;0.00;0.00;;;;;;;;;;5079678;28;20167;-63
2021/05/22 04:49:11;;;;;;;3.60;2.00;;;;;;;;;;5080129;28;20170;-63
2021/05/22 04:51:37;;;;;;;10.43;1.50;;;;;;;;;;5079549;28;20167;-63
2021/05/22 04:54:06;;;;;;;0.00;0.00;;;;;;;;;;5079803;28;20410;-63
2021/05/22 04:56:32;;;;;;;0.00;0.00;;;;;;;;;;5079020;28;20170;-64
2021/05/22 04:58:59;;;;;;;0.27;0.20;;;;;;;;;;5080310;28;20171;-63
2021/05/22 05:01:26;;;;;;;0.00;0.00;;;;;;;;;;5078150;28;20194;-63
2021/05/22 05:03:52;;;;;;;32.27;3.10;;;;;;;;;;5079693;28;20163;-63
2021/05/22 05:06:19;;;;;;;0.00;0.00;;;;;;;;;;5080467;28;20969;-63
2021/05/22 05:08:45;;;;;;;0.00;0.00;;;;;;;;;;5078738;28;20508;-63
2021/05/22 05:11:12;;;;;;;0.00;0.00;;;;;;;;;;5079389;28;20162;-63
2021/05/22 05:13:38;;;;;;;3.00;0.20;;;;;;;;;;5078757;28;20283;-62
2021/05/22 05:16:05;;;;;;;5.93;0.73;;;;;;;;;;5078227;28;20750;-63
2021/05/22 05:18:32;;;;;;;1.10;1.03;;;;;;;;;;5079179;28;20167;-63
2021/05/22 05:20:58;;;;;;;0.00;0.00;;;;;;;;;;5079117;28;20174;-63
2021/05/22 05:23:25;;;;;;;4.97;1.47;;;;;;;;;;5077453;28;20178;-63
2021/05/22 05:25:52;;;;;;;0.20;0.10;;;;;;;;;;5077584;28;20166;-63
2021/05/22 05:28:20;;;;;;;0.00;0.00;;;;;;;;;;5079817;28;20209;-63
2021/05/22 05:30:46;;;;;;;0.00;0.00;;;;;;;;;;5078215;28;20177;-63
2021/05/22 05:33:13;;;;;;;0.53;0.53;;;;;;;;;;5080728;28;20201;-62
2021/05/22 05:35:39;;;;;;;0.13;0.13;;;;;;;;;;5079462;28;20194;-63
2021/05/22 05:38:06;;;;;;;0.20;0.20;;;;;;;;;;5078860;28;20178;-63
2021/05/22 05:40:33;;;;;;;1.60;0.43;;;;;;;;;;5079124;28;20174;-63
2021/05/22 05:43:02;;;;;;;0.00;0.00;;;;;;;;;;5079850;28;20224;-62
2021/05/22 05:45:29;;;;;;;2.10;0.33;;;;;;;;;;5079046;28;20242;-63
2021/05/22 05:47:56;;;;;;;0.90;0.47;;;;;;;;;;5079114;28;20171;-63
2021/05/22 05:50:23;;;;;;;0.43;0.27;;;;;;;;;;5079038;28;20648;-63
2021/05/22 05:52:50;;;;;;;2.70;0.20;;;;;;;;;;5077958;28;20210;-63
2021/05/22 05:55:16;;;;;;;0.00;0.00;;;;;;;;;;5078899;28;20230;-63
2021/05/22 05:57:43;;;;;;;0.00;0.00;;;;;;;;;;5080589;28;20182;-63
2021/05/22 06:00:10;;;;;;;0.20;0.20;;;;;;;;;;5083436;28;20324;-63
2021/05/22 06:02:36;;;;;;;1.70;0.73;;;;;;;;;;5081509;28;20162;-63
2021/05/22 06:05:03;;;;;;;0.00;0.00;;;;;;;;;;5083451;28;20235;-62
2021/05/22 06:07:30;;;;;;;0.10;0.10;;;;;;;;;;5083763;28;20178;-63
2021/05/22 06:09:57;;;;;;;0.00;0.00;;;;;;;;;;5083200;28;20173;-63
2021/05/22 06:12:23;;;;;;;0.00;0.00;;;;;;;;;;5083382;28;20239;-63
2021/05/22 06:14:53;;;;;;;2.00;1.07;;;;;;;;;;5083423;28;20304;-63
2021/05/22 06:17:20;;;;;;;0.00;0.00;;;;;;;;;;5082864;28;20182;-62
2021/05/22 06:19:46;;;;;;;0.00;0.00;;;;;;;;;;5083965;28;20274;-63
2021/05/22 06:22:13;;;;;;;0.20;0.20;;;;;;;;;;5083148;28;20177;-63
2021/05/22 06:24:39;;;;;;;0.50;0.50;;;;;;;;;;5083251;28;20174;-63
2021/05/22 06:27:06;;;;;;;1.97;1.00;;;;;;;;;;5082466;28;20683;-63
2021/05/22 06:29:33;;;;;;;0.43;0.43;;;;;;;;;;5082754;28;20216;-63
2021/05/22 06:31:59;;;;;;;0.77;0.57;;;;;;;;;;5083354;28;20175;-63
2021/05/22 06:34:26;;;;;;;0.00;0.00;;;;;;;;;;5083162;28;20205;-63
2021/05/22 06:36:53;;;;;;;0.20;0.20;;;;;;;;;;5082201;28;20159;-63
2021/05/22 06:39:21;;;;;;;0.77;0.60;;;;;;;;;;5081535;28;20202;-63
2021/05/22 06:41:47;;;;;;;0.90;0.33;;;;;;;;;;5082008;28;20170;-63
2021/05/22 06:44:36;;;;;;;0.00;0.00;;;;;;;;;;5082576;28;20171;-63
2021/05/22 06:47:03;;;;;;;0.00;0.00;;;;;;;;;;5081471;28;20323;-63
2021/05/22 06:49:33;;;;;;;0.00;0.00;;;;;;;;;;5082567;28;20167;-62
2021/05/22 06:52:01;;;;;;;1.60;1.53;;;;;;;;;;5082342;28;20170;-62
2021/05/22 06:54:29;;;;;;;0.00;0.00;;;;;;;;;;5082405;28;20513;-63
2021/05/22 06:56:56;;;;;;;2.70;2.00;;;;;;;;;;5082518;28;20174;-62
2021/05/22 06:59:22;;;;;;;0.43;0.27;;;;;;;;;;5081910;28;20174;-62
2021/05/22 07:01:49;;;;;;;0.30;0.30;;;;;;;;;;5081153;28;20177;-62
2021/05/22 07:04:15;;;;;;;0.00;0.00;;;;;;;;;;5081446;28;20172;-62
2021/05/22 07:06:42;;;;;;;0.00;0.00;;;;;;;;;;5082077;28;20178;-61
2021/05/22 07:09:08;;;;;;;0.77;0.40;;;;;;;;;;5080947;28;20181;-62
2021/05/22 07:11:35;;;;;;;0.77;0.30;;;;;;;;;;5081320;28;20166;-62
2021/05/22 07:14:02;;;;;;;6.03;2.33;;;;;;;;;;5078475;28;20239;-62
2021/05/22 07:16:30;;;;;;;2.10;0.80;;;;;;;;;;5081598;28;20177;-62
2021/05/22 07:18:56;;;;;;;4.90;0.87;;;;;;;;;;5081250;28;20171;-62
2021/05/22 07:21:22;;;;;;;0.40;0.40;;;;;;;;;;5082346;28;20390;-62
2021/05/22 07:23:49;;;;;;;0.00;0.00;;;;;;;;;;5081159;28;20385;-62
2021/05/22 07:26:15;;;;;;;0.50;0.50;;;;;;;;;;5081387;28;20159;-62
2021/05/22 07:28:42;;;;;;;0.00;0.00;;;;;;;;;;5080870;28;20179;-63
2021/05/22 07:31:09;;;;;;;3.00;0.70;;;;;;;;;;5080167;28;20660;-62
2021/05/22 07:33:40;;;;;;;0.53;0.43;;;;;;;;;;5081964;28;20198;-62
2021/05/22 07:36:07;;;;;;;0.10;0.10;;;;;;;;;;5081420;28;20198;-62
2021/05/22 07:38:34;;;;;;;0.20;0.20;;;;;;;;;;5082034;28;20518;-62
2021/05/22 07:41:00;;;;;;;0.00;0.00;;;;;;;;;;5082553;28;20266;-62
2021/05/22 07:43:27;;;;;;;0.20;0.20;;;;;;;;;;5080865;28;20182;-62
2021/05/22 07:45:56;;;;;;;4.40;0.90;;;;;;;;;;5081736;28;20175;-63
2021/05/22 07:48:24;;;;;;;0.53;0.53;;;;;;;;;;5081791;28;20530;-63
2021/05/22 07:50:52;;;;;;;0.00;0.00;;;;;;;;;;5081876;28;20182;-62
2021/05/22 13:03:59;;;;;;;3.83;1.03;;;;;;;;;;5033974;27;1716293;-68
2021/05/22 13:06:26;;;;;;;0.40;0.30;;;;;;;;;;5077467;28;20995;-67
2021/05/22 13:08:53;;;;;;;0.00;0.00;;;;;;;;;;5074752;28;20193;-67
2021/05/22 13:11:21;;;;;;;1.93;0.93;;;;;;;;;;5075530;28;20911;-68
2021/05/22 13:14:00;;;;;;;3.90;0.63;;;;;;;;;;5083660;28;20199;-69
2021/05/22 13:16:27;;;;;;;2.30;1.03;;;;;;;;;;5071857;28;20196;-69
2021/05/22 13:18:56;;;;;;;9.63;2.37;;;;;;;;;;5076062;28;20193;-67
2021/05/22 13:21:29;;;;;;;3.87;2.07;;;;;;;;;;5075124;28;20250;-67
2021/05/22 13:23:56;;;;;;;1.93;1.07;;;;;;;;;;5074319;28;20218;-66
2021/05/22 13:26:24;;;;;;;6.20;1.23;;;;;;;;;;5070566;28;20186;-66
2021/05/22 13:28:51;;;;;;;0.10;0.10;;;;;;;;;;5075530;28;20227;-67
2021/05/22 13:31:31;;;;;;;0.83;0.23;;;;;;;;;;5077296;28;20556;-67
2021/05/22 13:34:11;;;;;;;0.00;0.00;;;;;;;;;;5077119;28;20181;-68
2021/05/22 13:36:39;;;;;;;0.27;0.27;;;;;;;;;;5071371;28;20178;-67
2021/05/22 13:39:06;;;;;;;1.30;0.73;;;;;;;;;;5072845;28;20175;-68
2021/05/22 13:41:34;;;;;;;13.27;1.30;;;;;;;;;;5076414;28;20213;-68
2021/05/22 13:44:01;;;;;;;1.03;0.20;;;;;;;;;;5077043;28;20633;-79
2021/05/22 13:46:27;;;;;;;0.00;0.00;;;;;;;;;;5059044;28;20179;-78
2021/05/22 13:48:54;;;;;;;2.67;2.47;;;;;;;;;;5077939;28;20186;-75
2021/05/22 13:51:24;;;;;;;1.20;0.63;;;;;;;;;;5072959;28;20213;-74
2021/05/22 13:53:51;;;;;;;0.87;0.80;;;;;;;;;;5075055;28;20309;-69
2021/05/22 13:56:19;;;;;;;2.10;0.90;;;;;;;;;;5074290;28;20920;-68
2021/05/22 13:58:47;;;;;;;0.00;0.00;;;;;;;;;;5076667;28;20205;-68
2021/05/22 14:01:13;;;;;;;4.73;4.33;;;;;;;;;;5084295;28;20793;-67
2021/05/22 14:03:41;;;;;;;0.90;0.70;;;;;;;;;;5067837;28;20751;-77
2021/05/22 14:06:08;;;;;;;1.50;0.47;;;;;;;;;;5072829;28;20187;-74
2021/05/22 14:08:36;;;;;;;1.37;0.23;;;;;;;;;;5077353;28;20186;-75
2021/05/22 14:11:03;;;;;;;5.23;2.43;;;;;;;;;;5076817;28;20831;-79
2021/05/22 14:13:29;;;;;;;10.53;2.73;;;;;;;;;;5073696;28;20224;-76
2021/05/22 14:15:56;;;;;;;0.50;0.37;;;;;;;;;;5064210;28;20202;-77
2021/05/22 14:18:23;;;;;;;0.00;0.00;;;;;;;;;;5060587;28;20182;-69
2021/05/22 14:20:51;;;;;;;0.20;0.10;;;;;;;;;;5062702;28;20283;-68
2021/05/22 14:23:17;;;;;;;0.83;0.37;;;;;;;;;;5062598;28;20222;-69
2021/05/22 14:25:44;;;;;;;0.00;0.00;;;;;;;;;;5063262;28;20695;-69
2021/05/22 14:28:10;;;;;;;0.50;0.30;;;;;;;;;;5062429;28;20244;-69
2021/05/22 14:30:37;;;;;;;9.93;1.67;;;;;;;;;;5053465;28;20187;-64
2021/05/22 14:33:06;;;;;;;0.63;0.50;;;;;;;;;;5064162;22;20308;-67
2021/05/22 14:35:32;;;;;;;5.40;1.00;;;;;;;;;;5061082;28;20210;-66
2021/05/22 14:37:59;;;;;;;2.53;1.17;;;;;;;;;;5060175;28;20178;-65
2021/05/22 14:40:26;;;;;;;0.10;0.10;;;;;;;;;;5062254;28;20274;-65
2021/05/22 14:42:53;;;;;;;0.87;0.60;;;;;;;;;;5059971;28;20217;-65
2021/05/22 14:45:20;;;;;;;0.20;0.07;;;;;;;;;;5061374;28;20214;-65
2021/05/22 14:47:48;;;;;;;1.80;1.23;;;;;;;;;;5061785;28;20175;-65
2021/05/22 14:50:16;;;;;;;6.20;1.60;;;;;;;;;;5062260;28;20210;-66
2021/05/22 14:52:42;;;;;;;0.30;0.30;;;;;;;;;;5058820;28;20205;-65
2021/05/22 14:55:10;;;;;;;10.33;1.23;;;;;;;;;;5063225;28;20539;-66
2021/05/22 14:57:36;;;;;;;0.90;0.23;;;;;;;;;;5059230;28;20778;-66
2021/05/22 15:00:04;;;;;;;3.50;0.70;;;;;;;;;;5060078;28;20228;-66
2021/05/22 15:02:30;;;;;;;1.80;0.50;;;;;;;;;;5059487;28;20224;-65
2021/05/22 15:04:57;;;;;;;0.40;0.40;;;;;;;;;;5060801;28;20188;-66
2021/05/22 15:07:24;;;;;;;2.10;1.43;;;;;;;;;;5057633;28;20778;-66
2021/05/22 15:09:50;;;;;;;0.37;0.37;;;;;;;;;;5058919;28;20202;-66
2021/05/22 15:12:17;;;;;;;0.80;0.60;;;;;;;;;;5058529;28;20206;-66
2021/05/22 15:14:44;;;;;;;0.73;0.20;;;;;;;;;;5057429;28;20224;-65
2021/05/22 15:17:10;;;;;;;5.60;0.60;;;;;;;;;;5060447;28;20190;-65
2021/05/22 15:19:37;;;;;;;0.20;0.20;;;;;;;;;;5061531;28;20171;-65
2021/05/22 15:22:03;;;;;;;5.10;1.20;;;;;;;;;;5061585;28;20389;-65
2021/05/22 15:24:30;;;;;;;14.13;1.70;;;;;;;;;;5059060;28;20721;-66
2021/05/22 15:26:57;;;;;;;4.90;2.43;;;;;;;;;;5060267;28;20204;-66
2021/05/22 15:29:23;;;;;;;2.20;0.60;;;;;;;;;;5059554;28;20823;-66
2021/05/22 15:31:50;;;;;;;0.40;0.40;;;;;;;;;;5063381;28;20197;-66
2021/05/22 15:34:17;;;;;;;0.37;0.33;;;;;;;;;;5059324;28;20215;-66
2021/05/22 15:36:44;;;;;;;2.93;0.57;;;;;;;;;;5059238;28;20636;-65
2021/05/22 15:39:12;;;;;;;23.63;4.53;;;;;;;;;;5058193;28;20179;-65
2021/05/22 15:41:39;;;;;;;0.37;0.37;;;;;;;;;;5054928;28;20602;-65
2021/05/22 15:44:06;;;;;;;0.30;0.30;;;;;;;;;;5061357;28;20186;-65
2021/05/22 15:46:34;;;;;;;12.33;2.43;;;;;;;;;;5060748;28;21069;-66
2021/05/22 15:59:51;;;;;;;2.83;0.83;;;;;;;;;;5059273;28;20204;-65
2021/05/22 16:02:37;;;;;;;7.30;2.00;;;;;;;;;;5061079;28;20211;-65
2021/05/22 16:05:47;;;;;;;4.23;1.23;;;;;;;;;;5060623;28;20186;-65
2021/05/22 16:07:53;;;;;;;0.00;0.00;;;;;;;;;;5054247;28;20186;-65
2021/05/22 16:10:20;;;;;;;6.43;0.77;;;;;;;;;;5060510;28;20183;-65
2021/05/22 16:12:46;;;;;;;0.37;0.37;;;;;;;;;;5060388;28;20177;-65
2021/05/22 16:15:13;;;;;;;0.00;0.00;;;;;;;;;;5060797;28;20193;-65
2021/05/22 16:17:39;;;;;;;0.00;0.00;;;;;;;;;;5060535;28;20193;-65
2021/05/22 16:20:06;;;;;;;0.00;0.00;;;;;;;;;;5061029;28;20699;-65
2021/05/22 16:22:33;;;;;;;2.80;1.43;;;;;;;;;;5060653;28;20209;-66
2021/05/22 16:25:00;;;;;;;1.03;0.40;;;;;;;;;;5060173;28;20213;-65
2021/05/22 16:27:26;;;;;;;2.87;1.17;;;;;;;;;;5060489;28;20185;-64
2021/05/22 16:29:53;;;;;;;0.50;0.50;;;;;;;;;;5060638;28;20184;-65
2021/05/22 16:32:19;;;;;;;0.87;0.87;;;;;;;;;;5059925;28;20198;-65
2021/05/22 16:34:46;;;;;;;1.00;0.73;;;;;;;;;;5060075;28;20244;-65
2021/05/22 16:37:12;;;;;;;6.47;2.33;;;;;;;;;;5061670;28;20233;-65
2021/05/22 16:39:39;;;;;;;3.73;0.63;;;;;;;;;;5061660;28;20207;-65
2021/05/22 16:42:06;;;;;;;1.00;0.30;;;;;;;;;;5055789;28;20213;-64
2021/05/22 16:44:32;;;;;;;1.50;0.10;;;;;;;;;;5052355;28;20211;-65
2021/05/22 16:46:59;;;;;;;0.63;0.20;;;;;;;;;;5052984;28;20272;-64
2021/05/22 16:49:25;;;;;;;0.57;0.57;;;;;;;;;;5050680;28;20181;-65
2021/05/22 16:51:52;;;;;;;1.60;0.00;;;;;;;;;;5056915;28;20174;-64
2021/05/22 16:54:19;;;;;;;3.60;0.87;;;;;;;;;;5061737;28;20198;-66
2021/05/22 16:56:46;;;;;;;5.80;1.33;;;;;;;;;;5055517;28;20185;-66
2021/05/22 16:59:13;;;;;;;0.00;0.00;;;;;;;;;;5060830;28;20596;-66
2021/05/22 17:01:39;;;;;;;0.20;0.20;;;;;;;;;;5060432;28;20178;-66
2021/05/22 17:04:16;;;;;;;0.27;0.13;;;;;;;;;;5060207;28;20272;-67
2021/05/22 17:06:50;;;;;;;3.03;2.33;;;;;;;;;;5064642;28;20789;-67
2021/05/22 17:09:17;;;;;;;3.67;0.27;;;;;;;;;;5068468;28;20659;-67
2021/05/22 17:11:44;;;;;;;0.67;0.10;;;;;;;;;;5060937;28;20189;-67
2021/05/22 17:14:11;;;;;;;0.70;0.10;;;;;;;;;;5061621;28;20201;-66
2021/05/22 17:16:39;;;;;;;0.00;0.00;;;;;;;;;;5047476;28;20194;-66
2021/05/22 17:19:05;;;;;;;0.20;0.10;;;;;;;;;;5060421;28;20186;-66
2021/05/22 17:21:32;;;;;;;0.63;0.43;;;;;;;;;;5061427;28;20213;-66
2021/05/22 17:23:59;;;;;;;0.90;0.53;;;;;;;;;;5059676;28;20199;-66
2021/05/22 17:26:25;;;;;;;2.20;1.20;;;;;;;;;;5056863;28;20182;-66
2021/05/22 17:28:53;;;;;;;51.97;37.47;;;;;;;;;;5052344;28;20186;-65
2021/05/22 17:31:19;;;;;;;4.93;1.33;;;;;;;;;;5053781;28;20271;-65
2021/05/22 17:33:46;;;;;;;4.30;1.33;;;;;;;;;;5058358;28;20250;-65
2021/05/22 17:36:13;;;;;;;0.37;0.30;;;;;;;;;;5057182;28;20194;-65
2021/05/22 17:38:41;;;;;;;3.73;1.20;;;;;;;;;;5058197;28;20182;-65
2021/05/22 17:41:08;;;;;;;0.87;0.80;;;;;;;;;;5059654;28;20201;-65
2021/05/22 17:43:36;;;;;;;4.57;2.37;;;;;;;;;;5050280;28;20204;-65
2021/05/22 17:46:03;;;;;;;0.00;0.00;;;;;;;;;;5055431;28;20750;-65
2021/05/22 17:48:29;;;;;;;2.63;1.77;;;;;;;;;;5055871;28;20821;-65
2021/05/22 17:50:56;;;;;;;3.83;1.13;;;;;;;;;;5062556;28;20190;-65
2021/05/22 17:53:23;;;;;;;0.63;0.37;;;;;;;;;;5054514;28;20219;-65
2021/05/22 17:55:50;;;;;;;0.53;0.10;;;;;;;;;;5061994;28;20283;-65
2021/05/22 17:58:17;;;;;;;0.10;0.10;;;;;;;;;;5063844;28;20196;-65
2021/05/22 18:00:45;;;;;;;4.90;1.03;;;;;;;;;;5066243;28;20193;-65
2021/05/22 18:03:12;;;;;;;1.40;0.23;;;;;;;;;;5058414;28;20730;-66
2021/05/22 18:05:39;;;;;;;0.60;0.30;;;;;;;;;;5061178;28;20185;-65
2021/05/22 18:08:06;;;;;;;1.60;0.77;;;;;;;;;;5061841;28;20552;-65
2021/05/22 18:10:33;;;;;;;4.40;2.77;;;;;;;;;;5062492;28;20918;-65
2021/05/22 18:13:01;;;;;;;5.53;1.80;;;;;;;;;;5059521;28;20202;-65
2021/05/22 18:15:28;;;;;;;0.07;0.03;;;;;;;;;;5061251;28;20236;-65
2021/05/22 18:17:56;;;;;;;0.20;0.20;;;;;;;;;;5060108;28;20194;-65
2021/05/22 18:20:25;;;;;;;3.50;1.03;;;;;;;;;;5064028;28;20185;-65
2021/05/22 18:22:54;;;;;;;8.93;1.67;;;;;;;;;;5061540;28;20230;-65
2021/05/22 18:25:22;;;;;;;3.83;1.00;;;;;;;;;;5063348;28;20190;-65
2021/05/22 18:27:51;;;;;;;14.93;2.20;;;;;;;;;;5058719;28;20236;-65
2021/05/22 18:30:19;;;;;;;0.83;0.43;;;;;;;;;;5039235;28;20187;-65
2021/05/22 18:32:45;;;;;;;0.50;0.50;;;;;;;;;;5059399;28;20190;-65
2021/05/22 18:35:13;;;;;;;1.10;0.73;;;;;;;;;;5056077;28;20337;-65
2021/05/22 18:37:40;;;;;;;0.00;0.00;;;;;;;;;;5061357;28;20289;-65
2021/05/22 18:40:08;;;;;;;3.20;0.60;;;;;;;;;;5055921;28;20191;-65
2021/05/22 18:42:37;;;;;;;2.03;1.47;;;;;;;;;;5059067;28;20222;-65
2021/05/22 18:45:04;;;;;;;1.70;0.87;;;;;;;;;;5062580;28;20186;-65
2021/05/22 18:47:31;;;;;;;1.40;0.20;;;;;;;;;;5064226;28;20271;-65
2021/05/22 18:49:57;;;;;;;1.90;0.23;;;;;;;;;;5063704;28;20175;-64
2021/05/22 18:52:24;;;;;;;0.27;0.17;;;;;;;;;;5058468;28;20187;-64
2021/05/22 18:54:51;;;;;;;2.10;0.40;;;;;;;;;;5063636;28;20277;-64
2021/05/22 18:57:17;;;;;;;8.43;2.67;;;;;;;;;;5060989;28;20198;-65
2021/05/22 18:59:44;;;;;;;8.93;0.73;;;;;;;;;;5055991;28;20185;-64
2021/05/22 19:02:11;;;;;;;0.80;0.33;;;;;;;;;;5054417;28;20250;-65
2021/05/22 19:04:37;;;;;;;0.00;0.00;;;;;;;;;;5059795;28;20179;-65
2021/05/22 19:07:05;;;;;;;4.47;0.47;;;;;;;;;;5063186;28;20618;-65
2021/05/22 19:09:31;;;;;;;0.20;0.20;;;;;;;;;;5051798;28;20219;-65
2021/05/22 19:11:58;;;;;;;0.30;0.07;;;;;;;;;;5057947;28;20190;-65
2021/05/22 19:14:25;;;;;;;0.50;0.40;;;;;;;;;;5059712;28;20343;-65
2021/05/22 19:16:52;;;;;;;0.17;0.17;;;;;;;;;;5058598;28;20186;-64
2021/05/22 19:19:19;;;;;;;0.57;0.13;;;;;;;;;;5058993;28;20184;-64
2021/05/22 19:21:47;;;;;;;3.07;2.97;;;;;;;;;;5052724;28;20173;-64
2021/05/22 19:24:13;;;;;;;0.20;0.20;;;;;;;;;;5059811;28;20191;-64
2021/05/22 19:26:40;;;;;;;7.53;1.07;;;;;;;;;;5059925;28;20212;-65
2021/05/22 19:29:07;;;;;;;6.47;0.83;;;;;;;;;;5063024;28;20856;-65
2021/05/22 19:31:33;;;;;;;1.43;0.70;;;;;;;;;;5056617;28;20211;-65
2021/05/22 19:34:00;;;;;;;1.37;0.77;;;;;;;;;;5058729;28;20273;-65
2021/05/22 19:36:27;;;;;;;0.30;0.20;;;;;;;;;;5056691;28;20238;-65
2021/05/22 19:38:53;;;;;;;1.80;0.97;;;;;;;;;;5057773;28;20925;-64
2021/05/22 19:41:20;;;;;;;0.20;0.20;;;;;;;;;;5059734;28;20269;-65
2021/05/22 19:43:47;;;;;;;0.00;0.00;;;;;;;;;;5043668;28;20195;-64
2021/05/22 19:46:15;;;;;;;4.03;1.17;;;;;;;;;;5056176;28;20183;-64
2021/05/22 19:48:43;;;;;;;0.00;0.00;;;;;;;;;;5060295;28;20281;-64
2021/05/22 19:51:11;;;;;;;0.00;0.00;;;;;;;;;;5055593;28;20239;-64
2021/05/22 19:53:37;;;;;;;1.33;0.13;;;;;;;;;;5055308;28;20284;-64
2021/05/22 19:56:05;;;;;;;4.73;1.00;;;;;;;;;;5058583;28;20186;-64
2021/05/22 19:58:33;;;;;;;2.23;1.57;;;;;;;;;;5057190;28;20189;-64
2021/05/22 20:01:00;;;;;;;1.40;0.87;;;;;;;;;;5058548;28;20561;-64
2021/05/22 20:03:26;;;;;;;7.23;1.60;;;;;;;;;;5057021;28;20228;-64
2021/05/22 20:05:53;;;;;;;0.77;0.53;;;;;;;;;;5052595;28;20183;-64